sensor_id;sensor_type;location;lat;lon;timestamp;temperature;humidity
10057;DHT22;5068;51.286;7.518;2022-08-05T00:00:24;21.20;60.30
10057;DHT22;5068;51.286;7.518;2022-08-05T00:01:59;21.20;60.40
10057;DHT22;5068;51.286;7.518;2022-08-05T00:03:42;21.10;60.30
10057;DHT22;5068;51.286;7.518;2022-08-05T00:05:17;21.10;60.30
10057;DHT22;5068;51.286;7.518;2022-08-05T00:07:10;21.10;60.30
10057;DHT22;5068;51.286;7.518;2022-08-05T00:09:04;21.10;60.20
10057;DHT22;5068;51.286;7.518;2022-08-05T00:10:48;21.10;60.30
10057;DHT22;5068;51.286;7.518;2022-08-05T00:12:21;21.10;60.30
10057;DHT22;5068;51.286;7.518;2022-08-05T00:13:54;21.10;60.00
10057;DHT22;5068;51.286;7.518;2022-08-05T00:15:28;21.10;60.00
10057;DHT22;5068;51.286;7.518;2022-08-05T00:17:22;21.10;60.10
10057;DHT22;5068;51.286;7.518;2022-08-05T00:18:56;21.10;60.00
10057;DHT22;5068;51.286;7.518;2022-08-05T00:20:30;21.10;59.90
10057;DHT22;5068;51.286;7.518;2022-08-05T00:22:04;21.10;59.50
10057;DHT22;5068;51.286;7.518;2022-08-05T00:23:43;21.10;59.60
10057;DHT22;5068;51.286;7.518;2022-08-05T00:25:38;21.10;59.40
10057;DHT22;5068;51.286;7.518;2022-08-05T00:27:18;21.10;59.40
10057;DHT22;5068;51.286;7.518;2022-08-05T00:29:00;21.00;59.20
10057;DHT22;5068;51.286;7.518;2022-08-05T00:30:34;21.00;59.20
10057;DHT22;5068;51.286;7.518;2022-08-05T00:32:07;21.00;59.30
10057;DHT22;5068;51.286;7.518;2022-08-05T00:33:46;21.00;59.10
10057;DHT22;5068;51.286;7.518;2022-08-05T00:35:40;21.00;59.20
10057;DHT22;5068;51.286;7.518;2022-08-05T00:37:33;21.00;59.30
10057;DHT22;5068;51.286;7.518;2022-08-05T00:39:25;21.00;59.30
10057;DHT22;5068;51.286;7.518;2022-08-05T00:41:07;21.00;59.30
10057;DHT22;5068;51.286;7.518;2022-08-05T00:42:44;21.00;59.40
10057;DHT22;5068;51.286;7.518;2022-08-05T00:44:21;20.90;59.40
10057;DHT22;5068;51.286;7.518;2022-08-05T00:46:02;20.90;59.40
10057;DHT22;5068;51.286;7.518;2022-08-05T00:47:35;20.90;59.40
10057;DHT22;5068;51.286;7.518;2022-08-05T00:49:29;20.90;59.40
10057;DHT22;5068;51.286;7.518;2022-08-05T00:51:22;20.90;59.40
10057;DHT22;5068;51.286;7.518;2022-08-05T00:53:17;20.90;60.00
10057;DHT22;5068;51.286;7.518;2022-08-05T00:55:12;20.90;59.40
10057;DHT22;5068;51.286;7.518;2022-08-05T00:56:46;20.90;59.40
10057;DHT22;5068;51.286;7.518;2022-08-05T00:58:24;20.90;59.30
10057;DHT22;5068;51.286;7.518;2022-08-05T00:59:58;20.90;59.20
10057;DHT22;5068;51.286;7.518;2022-08-05T01:01:31;20.90;59.20
10057;DHT22;5068;51.286;7.518;2022-08-05T01:03:20;20.90;59.10
10057;DHT22;5068;51.286;7.518;2022-08-05T01:04:54;20.80;59.00
10057;DHT22;5068;51.286;7.518;2022-08-05T01:06:28;20.80;59.00
10057;DHT22;5068;51.286;7.518;2022-08-05T01:08:05;20.90;59.10
10057;DHT22;5068;51.286;7.518;2022-08-05T01:10:00;20.80;59.10
10057;DHT22;5068;51.286;7.518;2022-08-05T01:11:41;20.80;59.00
10057;DHT22;5068;51.286;7.518;2022-08-05T01:13:27;20.80;59.00
10057;DHT22;5068;51.286;7.518;2022-08-05T01:15:37;20.70;58.90
10057;DHT22;5068;51.286;7.518;2022-08-05T01:17:26;20.70;58.90
10057;DHT22;5068;51.286;7.518;2022-08-05T01:19:22;20.70;59.00
10057;DHT22;5068;51.286;7.518;2022-08-05T01:21:51;20.70;59.10
10057;DHT22;5068;51.286;7.518;2022-08-05T01:23:48;20.70;59.20
10057;DHT22;5068;51.286;7.518;2022-08-05T01:25:43;20.60;59.10
10057;DHT22;5068;51.286;7.518;2022-08-05T01:27:48;20.60;59.00
10057;DHT22;5068;51.286;7.518;2022-08-05T01:29:49;20.60;59.10
10057;DHT22;5068;51.286;7.518;2022-08-05T01:31:33;20.50;58.90
10057;DHT22;5068;51.286;7.518;2022-08-05T01:33:18;20.50;59.10
10057;DHT22;5068;51.286;7.518;2022-08-05T01:34:59;20.50;59.10
10057;DHT22;5068;51.286;7.518;2022-08-05T01:36:46;20.40;59.10
10057;DHT22;5068;51.286;7.518;2022-08-05T01:38:25;20.40;59.20
10057;DHT22;5068;51.286;7.518;2022-08-05T01:40:02;20.40;59.30
10057;DHT22;5068;51.286;7.518;2022-08-05T01:41:40;20.30;59.30
10057;DHT22;5068;51.286;7.518;2022-08-05T01:43:17;20.30;59.40
10057;DHT22;5068;51.286;7.518;2022-08-05T01:44:55;20.30;59.50
10057;DHT22;5068;51.286;7.518;2022-08-05T01:46:31;20.20;59.50
10057;DHT22;5068;51.286;7.518;2022-08-05T01:48:18;20.20;59.50
10057;DHT22;5068;51.286;7.518;2022-08-05T01:49:53;20.20;59.60
10057;DHT22;5068;51.286;7.518;2022-08-05T01:51:34;20.10;59.60
10057;DHT22;5068;51.286;7.518;2022-08-05T01:53:11;20.10;59.60
10057;DHT22;5068;51.286;7.518;2022-08-05T01:55:08;20.10;59.90
10057;DHT22;5068;51.286;7.518;2022-08-05T01:56:45;20.10;59.80
10057;DHT22;5068;51.286;7.518;2022-08-05T01:58:42;20.10;59.90
10057;DHT22;5068;51.286;7.518;2022-08-05T02:00:22;20.00;59.80
10057;DHT22;5068;51.286;7.518;2022-08-05T02:02:03;20.00;60.00
10057;DHT22;5068;51.286;7.518;2022-08-05T02:03:46;19.90;60.00
10057;DHT22;5068;51.286;7.518;2022-08-05T02:05:31;19.90;60.20
10057;DHT22;5068;51.286;7.518;2022-08-05T02:07:07;19.90;60.30
10057;DHT22;5068;51.286;7.518;2022-08-05T02:08:53;19.90;60.10
10057;DHT22;5068;51.286;7.518;2022-08-05T02:10:35;19.80;60.00
10057;DHT22;5068;51.286;7.518;2022-08-05T02:12:18;19.80;60.20
10057;DHT22;5068;51.286;7.518;2022-08-05T02:14:01;19.80;60.30
10057;DHT22;5068;51.286;7.518;2022-08-05T02:15:45;19.80;60.40
10057;DHT22;5068;51.286;7.518;2022-08-05T02:17:28;19.80;60.40
10057;DHT22;5068;51.286;7.518;2022-08-05T02:19:29;19.70;60.40
10057;DHT22;5068;51.286;7.518;2022-08-05T02:21:10;19.70;60.40
10057;DHT22;5068;51.286;7.518;2022-08-05T02:22:49;19.60;60.30
10057;DHT22;5068;51.286;7.518;2022-08-05T02:24:34;19.60;60.30
10057;DHT22;5068;51.286;7.518;2022-08-05T02:26:15;19.50;60.20
10057;DHT22;5068;51.286;7.518;2022-08-05T02:27:58;19.60;60.30
10057;DHT22;5068;51.286;7.518;2022-08-05T02:29:40;19.50;60.30
10057;DHT22;5068;51.286;7.518;2022-08-05T02:31:33;19.50;60.60
10057;DHT22;5068;51.286;7.518;2022-08-05T02:33:09;19.40;60.40
10057;DHT22;5068;51.286;7.518;2022-08-05T02:34:56;19.40;60.50
10057;DHT22;5068;51.286;7.518;2022-08-05T02:36:48;19.40;60.70
10057;DHT22;5068;51.286;7.518;2022-08-05T02:38:24;19.30;60.80
10057;DHT22;5068;51.286;7.518;2022-08-05T02:40:08;19.30;60.60
10057;DHT22;5068;51.286;7.518;2022-08-05T02:41:44;19.30;60.90
10057;DHT22;5068;51.286;7.518;2022-08-05T02:43:32;19.30;61.10
10057;DHT22;5068;51.286;7.518;2022-08-05T02:45:29;19.20;61.10
10057;DHT22;5068;51.286;7.518;2022-08-05T02:47:24;19.20;61.20
10057;DHT22;5068;51.286;7.518;2022-08-05T02:49:19;19.20;61.40
10057;DHT22;5068;51.286;7.518;2022-08-05T02:50:58;19.10;61.40
10057;DHT22;5068;51.286;7.518;2022-08-05T02:52:32;19.10;61.70
10057;DHT22;5068;51.286;7.518;2022-08-05T02:54:07;19.10;61.80
10057;DHT22;5068;51.286;7.518;2022-08-05T02:56:03;19.10;62.10
10057;DHT22;5068;51.286;7.518;2022-08-05T02:57:38;19.10;62.30
10057;DHT22;5068;51.286;7.518;2022-08-05T03:02:05;19.10;63.00
10057;DHT22;5068;51.286;7.518;2022-08-05T03:03:42;19.10;62.60
10057;DHT22;5068;51.286;7.518;2022-08-05T03:05:34;19.10;62.60
10057;DHT22;5068;51.286;7.518;2022-08-05T03:07:28;19.10;62.50
10057;DHT22;5068;51.286;7.518;2022-08-05T03:09:22;19.10;62.40
10057;DHT22;5068;51.286;7.518;2022-08-05T03:11:16;19.10;62.50
10057;DHT22;5068;51.286;7.518;2022-08-05T03:13:11;19.10;63.00
10057;DHT22;5068;51.286;7.518;2022-08-05T03:14:47;19.10;62.70
10057;DHT22;5068;51.286;7.518;2022-08-05T03:16:21;19.10;62.90
10057;DHT22;5068;51.286;7.518;2022-08-05T03:17:56;19.00;62.90
10057;DHT22;5068;51.286;7.518;2022-08-05T03:19:30;19.00;63.30
10057;DHT22;5068;51.286;7.518;2022-08-05T03:21:07;19.00;63.50
10057;DHT22;5068;51.286;7.518;2022-08-05T03:22:40;19.00;63.80
10057;DHT22;5068;51.286;7.518;2022-08-05T03:24:22;19.10;64.10
10057;DHT22;5068;51.286;7.518;2022-08-05T03:26:02;19.00;64.30
10057;DHT22;5068;51.286;7.518;2022-08-05T03:27:56;19.00;64.50
10057;DHT22;5068;51.286;7.518;2022-08-05T03:29:31;19.00;64.70
10057;DHT22;5068;51.286;7.518;2022-08-05T03:31:17;19.00;65.00
10057;DHT22;5068;51.286;7.518;2022-08-05T03:33:12;19.00;65.20
10057;DHT22;5068;51.286;7.518;2022-08-05T03:34:47;19.00;65.30
10057;DHT22;5068;51.286;7.518;2022-08-05T03:36:22;19.00;65.60
10057;DHT22;5068;51.286;7.518;2022-08-05T03:38:01;19.00;65.70
10057;DHT22;5068;51.286;7.518;2022-08-05T03:39:35;19.00;65.90
10057;DHT22;5068;51.286;7.518;2022-08-05T03:41:29;19.00;66.10
10057;DHT22;5068;51.286;7.518;2022-08-05T03:43:09;19.00;66.50
10057;DHT22;5068;51.286;7.518;2022-08-05T03:45:04;18.90;66.80
10057;DHT22;5068;51.286;7.518;2022-08-05T03:46:53;18.90;67.10
10057;DHT22;5068;51.286;7.518;2022-08-05T03:48:29;18.90;67.20
10057;DHT22;5068;51.286;7.518;2022-08-05T03:50:07;18.90;67.60
10057;DHT22;5068;51.286;7.518;2022-08-05T03:51:44;18.90;67.50
10057;DHT22;5068;51.286;7.518;2022-08-05T03:53:49;18.80;67.70
10057;DHT22;5068;51.286;7.518;2022-08-05T03:55:51;18.80;67.50
10057;DHT22;5068;51.286;7.518;2022-08-05T03:57:46;18.80;67.60
10057;DHT22;5068;51.286;7.518;2022-08-05T03:59:24;18.80;67.80
10057;DHT22;5068;51.286;7.518;2022-08-05T04:01:20;18.80;68.00
10057;DHT22;5068;51.286;7.518;2022-08-05T04:02:58;18.80;68.00
10057;DHT22;5068;51.286;7.518;2022-08-05T04:04:37;18.70;68.20
10057;DHT22;5068;51.286;7.518;2022-08-05T04:06:17;18.70;68.20
10057;DHT22;5068;51.286;7.518;2022-08-05T04:07:51;18.70;68.20
10057;DHT22;5068;51.286;7.518;2022-08-05T04:09:30;18.70;68.40
10057;DHT22;5068;51.286;7.518;2022-08-05T04:11:08;18.70;68.10
10057;DHT22;5068;51.286;7.518;2022-08-05T04:12:43;18.70;68.10
10057;DHT22;5068;51.286;7.518;2022-08-05T04:14:17;18.70;68.30
10057;DHT22;5068;51.286;7.518;2022-08-05T04:16:01;18.60;68.20
10057;DHT22;5068;51.286;7.518;2022-08-05T04:17:35;18.70;68.20
10057;DHT22;5068;51.286;7.518;2022-08-05T04:19:28;18.60;68.20
10057;DHT22;5068;51.286;7.518;2022-08-05T04:21:04;18.70;68.30
10057;DHT22;5068;51.286;7.518;2022-08-05T04:22:42;18.60;68.40
10057;DHT22;5068;51.286;7.518;2022-08-05T04:24:15;18.60;68.30
10057;DHT22;5068;51.286;7.518;2022-08-05T04:25:54;18.60;68.50
10057;DHT22;5068;51.286;7.518;2022-08-05T04:27:32;18.70;68.70
10057;DHT22;5068;51.286;7.518;2022-08-05T04:29:25;18.60;68.40
10057;DHT22;5068;51.286;7.518;2022-08-05T04:31:01;18.60;68.30
10057;DHT22;5068;51.286;7.518;2022-08-05T04:32:41;18.60;68.30
10057;DHT22;5068;51.286;7.518;2022-08-05T04:34:14;18.60;68.20
10057;DHT22;5068;51.286;7.518;2022-08-05T04:36:07;18.60;68.40
10057;DHT22;5068;51.286;7.518;2022-08-05T04:38:01;18.60;68.60
10057;DHT22;5068;51.286;7.518;2022-08-05T04:39:37;18.60;68.50
10057;DHT22;5068;51.286;7.518;2022-08-05T04:41:11;18.60;68.50
10057;DHT22;5068;51.286;7.518;2022-08-05T04:42:45;18.60;68.30
10057;DHT22;5068;51.286;7.518;2022-08-05T04:44:21;18.60;68.40
10057;DHT22;5068;51.286;7.518;2022-08-05T04:46:01;18.60;68.60
10057;DHT22;5068;51.286;7.518;2022-08-05T04:47:36;18.60;68.70
10057;DHT22;5068;51.286;7.518;2022-08-05T04:49:18;18.60;68.80
10057;DHT22;5068;51.286;7.518;2022-08-05T04:51:11;18.60;68.80
10057;DHT22;5068;51.286;7.518;2022-08-05T04:52:45;18.60;68.80
10057;DHT22;5068;51.286;7.518;2022-08-05T04:54:20;18.60;68.80
10057;DHT22;5068;51.286;7.518;2022-08-05T04:55:59;18.50;68.70
10057;DHT22;5068;51.286;7.518;2022-08-05T04:57:52;18.60;68.80
10057;DHT22;5068;51.286;7.518;2022-08-05T04:59:26;18.60;68.90
10057;DHT22;5068;51.286;7.518;2022-08-05T05:01:10;18.60;68.90
10057;DHT22;5068;51.286;7.518;2022-08-05T05:02:44;18.60;69.10
10057;DHT22;5068;51.286;7.518;2022-08-05T05:04:17;18.60;69.20
10057;DHT22;5068;51.286;7.518;2022-08-05T05:05:52;18.60;69.20
10057;DHT22;5068;51.286;7.518;2022-08-05T05:07:47;18.50;69.00
10057;DHT22;5068;51.286;7.518;2022-08-05T05:09:31;18.50;69.00
10057;DHT22;5068;51.286;7.518;2022-08-05T05:11:09;18.50;69.00
10057;DHT22;5068;51.286;7.518;2022-08-05T05:12:46;18.50;69.10
10057;DHT22;5068;51.286;7.518;2022-08-05T05:14:22;18.50;69.30
10057;DHT22;5068;51.286;7.518;2022-08-05T05:16:04;18.60;69.50
10057;DHT22;5068;51.286;7.518;2022-08-05T05:17:38;18.50;69.70
10057;DHT22;5068;51.286;7.518;2022-08-05T05:19:28;18.50;70.50
10057;DHT22;5068;51.286;7.518;2022-08-05T05:21:16;18.50;69.70
10057;DHT22;5068;51.286;7.518;2022-08-05T05:22:51;18.50;69.60
10057;DHT22;5068;51.286;7.518;2022-08-05T05:24:25;18.50;70.60
10057;DHT22;5068;51.286;7.518;2022-08-05T05:26:18;18.60;70.10
10057;DHT22;5068;51.286;7.518;2022-08-05T05:28:04;18.60;70.30
10057;DHT22;5068;51.286;7.518;2022-08-05T05:29:38;18.60;70.50
10057;DHT22;5068;51.286;7.518;2022-08-05T05:31:32;18.60;70.70
10057;DHT22;5068;51.286;7.518;2022-08-05T05:33:06;18.60;70.70
10057;DHT22;5068;51.286;7.518;2022-08-05T05:34:48;18.60;70.90
10057;DHT22;5068;51.286;7.518;2022-08-05T05:36:23;18.60;70.60
10057;DHT22;5068;51.286;7.518;2022-08-05T05:38:01;18.60;70.60
10057;DHT22;5068;51.286;7.518;2022-08-05T05:39:39;18.60;70.90
10057;DHT22;5068;51.286;7.518;2022-08-05T05:41:16;18.60;70.70
10057;DHT22;5068;51.286;7.518;2022-08-05T05:42:50;18.60;70.60
10057;DHT22;5068;51.286;7.518;2022-08-05T05:44:23;18.60;70.60
10057;DHT22;5068;51.286;7.518;2022-08-05T05:46:13;18.60;70.70
10057;DHT22;5068;51.286;7.518;2022-08-05T05:47:50;18.70;70.90
10057;DHT22;5068;51.286;7.518;2022-08-05T05:49:38;18.70;70.90
10057;DHT22;5068;51.286;7.518;2022-08-05T05:51:17;18.60;70.70
10057;DHT22;5068;51.286;7.518;2022-08-05T05:52:52;18.60;71.20
10057;DHT22;5068;51.286;7.518;2022-08-05T05:54:27;18.70;71.10
10057;DHT22;5068;51.286;7.518;2022-08-05T05:56:21;18.60;71.30
10057;DHT22;5068;51.286;7.518;2022-08-05T05:58:02;18.70;71.30
10057;DHT22;5068;51.286;7.518;2022-08-05T05:59:36;18.70;71.50
10057;DHT22;5068;51.286;7.518;2022-08-05T06:01:11;18.70;71.50
10057;DHT22;5068;51.286;7.518;2022-08-05T06:02:46;18.70;72.10
10057;DHT22;5068;51.286;7.518;2022-08-05T06:04:21;18.70;71.50
10057;DHT22;5068;51.286;7.518;2022-08-05T06:05:54;18.70;71.70
10057;DHT22;5068;51.286;7.518;2022-08-05T06:07:28;18.80;71.90
10057;DHT22;5068;51.286;7.518;2022-08-05T06:09:13;18.70;71.60
10057;DHT22;5068;51.286;7.518;2022-08-05T06:10:58;18.80;71.80
10057;DHT22;5068;51.286;7.518;2022-08-05T06:12:33;18.80;71.80
10057;DHT22;5068;51.286;7.518;2022-08-05T06:14:13;18.80;71.70
10057;DHT22;5068;51.286;7.518;2022-08-05T06:15:47;18.80;71.50
10057;DHT22;5068;51.286;7.518;2022-08-05T06:17:41;18.80;71.30
10057;DHT22;5068;51.286;7.518;2022-08-05T06:19:25;18.80;71.20
10057;DHT22;5068;51.286;7.518;2022-08-05T06:21:06;18.80;71.10
10057;DHT22;5068;51.286;7.518;2022-08-05T06:22:49;18.80;71.10
10057;DHT22;5068;51.286;7.518;2022-08-05T06:24:23;18.80;71.00
10057;DHT22;5068;51.286;7.518;2022-08-05T06:25:59;18.80;70.70
10057;DHT22;5068;51.286;7.518;2022-08-05T06:27:52;18.80;71.50
10057;DHT22;5068;51.286;7.518;2022-08-05T06:29:45;18.80;70.70
10057;DHT22;5068;51.286;7.518;2022-08-05T06:31:38;18.80;70.60
10057;DHT22;5068;51.286;7.518;2022-08-05T06:33:12;18.80;70.60
10057;DHT22;5068;51.286;7.518;2022-08-05T06:34:50;18.80;70.70
10057;DHT22;5068;51.286;7.518;2022-08-05T06:36:27;18.80;70.80
10057;DHT22;5068;51.286;7.518;2022-08-05T06:38:21;18.80;71.80
10057;DHT22;5068;51.286;7.518;2022-08-05T06:40:08;18.80;71.10
10057;DHT22;5068;51.286;7.518;2022-08-05T06:41:46;18.80;71.10
10057;DHT22;5068;51.286;7.518;2022-08-05T06:43:23;18.80;71.20
10057;DHT22;5068;51.286;7.518;2022-08-05T06:45:16;18.80;71.10
10057;DHT22;5068;51.286;7.518;2022-08-05T06:46:52;18.80;71.00
10057;DHT22;5068;51.286;7.518;2022-08-05T06:48:27;18.90;71.20
10057;DHT22;5068;51.286;7.518;2022-08-05T06:50:20;18.90;71.40
10057;DHT22;5068;51.286;7.518;2022-08-05T06:51:55;18.90;71.30
10057;DHT22;5068;51.286;7.518;2022-08-05T06:53:30;18.90;71.20
10057;DHT22;5068;51.286;7.518;2022-08-05T06:55:10;18.90;71.10
10057;DHT22;5068;51.286;7.518;2022-08-05T06:56:47;18.90;70.90
10057;DHT22;5068;51.286;7.518;2022-08-05T06:58:40;18.90;70.90
10057;DHT22;5068;51.286;7.518;2022-08-05T07:00:18;18.90;70.70
10057;DHT22;5068;51.286;7.518;2022-08-05T07:01:55;18.90;70.60
10057;DHT22;5068;51.286;7.518;2022-08-05T07:03:30;19.00;70.60
10057;DHT22;5068;51.286;7.518;2022-08-05T07:05:05;19.00;70.70
10057;DHT22;5068;51.286;7.518;2022-08-05T07:06:45;19.00;70.80
10057;DHT22;5068;51.286;7.518;2022-08-05T07:08:21;19.00;70.80
10057;DHT22;5068;51.286;7.518;2022-08-05T07:09:56;19.00;70.80
10057;DHT22;5068;51.286;7.518;2022-08-05T07:11:29;19.00;70.70
10057;DHT22;5068;51.286;7.518;2022-08-05T07:13:09;19.00;70.60
10057;DHT22;5068;51.286;7.518;2022-08-05T07:15:21;19.10;70.70
10057;DHT22;5068;51.286;7.518;2022-08-05T07:17:32;19.10;70.80
10057;DHT22;5068;51.286;7.518;2022-08-05T07:19:26;19.10;70.90
10057;DHT22;5068;51.286;7.518;2022-08-05T07:21:20;19.10;71.00
10057;DHT22;5068;51.286;7.518;2022-08-05T07:22:57;19.10;70.60
10057;DHT22;5068;51.286;7.518;2022-08-05T07:24:30;19.10;70.70
10057;DHT22;5068;51.286;7.518;2022-08-05T07:26:15;19.10;70.60
10057;DHT22;5068;51.286;7.518;2022-08-05T07:27:54;19.20;70.70
10057;DHT22;5068;51.286;7.518;2022-08-05T07:29:38;19.20;70.80
10057;DHT22;5068;51.286;7.518;2022-08-05T07:31:32;19.20;70.80
10057;DHT22;5068;51.286;7.518;2022-08-05T07:33:25;19.20;70.50
10057;DHT22;5068;51.286;7.518;2022-08-05T07:35:09;19.20;70.20
10057;DHT22;5068;51.286;7.518;2022-08-05T07:37:04;19.20;70.00
10057;DHT22;5068;51.286;7.518;2022-08-05T07:38:40;19.20;69.80
10057;DHT22;5068;51.286;7.518;2022-08-05T07:40:15;19.20;69.90
10057;DHT22;5068;51.286;7.518;2022-08-05T07:42:04;19.20;69.80
10057;DHT22;5068;51.286;7.518;2022-08-05T07:43:46;19.20;69.50
10057;DHT22;5068;51.286;7.518;2022-08-05T07:45:20;19.20;69.50
10057;DHT22;5068;51.286;7.518;2022-08-05T07:47:14;19.20;69.40
10057;DHT22;5068;51.286;7.518;2022-08-05T07:48:47;19.10;69.10
10057;DHT22;5068;51.286;7.518;2022-08-05T07:50:36;19.10;69.00
10057;DHT22;5068;51.286;7.518;2022-08-05T07:52:12;19.10;69.10
10057;DHT22;5068;51.286;7.518;2022-08-05T07:53:46;19.10;69.30
10057;DHT22;5068;51.286;7.518;2022-08-05T07:55:22;19.10;69.10
10057;DHT22;5068;51.286;7.518;2022-08-05T07:57:17;19.10;69.10
10057;DHT22;5068;51.286;7.518;2022-08-05T07:59:10;19.10;69.20
10057;DHT22;5068;51.286;7.518;2022-08-05T08:00:46;19.10;69.30
10057;DHT22;5068;51.286;7.518;2022-08-05T08:02:25;19.00;69.10
10057;DHT22;5068;51.286;7.518;2022-08-05T08:04:19;19.00;69.20
10057;DHT22;5068;51.286;7.518;2022-08-05T08:06:09;19.00;69.10
10057;DHT22;5068;51.286;7.518;2022-08-05T08:07:42;19.00;68.90
10057;DHT22;5068;51.286;7.518;2022-08-05T08:09:32;19.00;69.00
10057;DHT22;5068;51.286;7.518;2022-08-05T08:11:05;19.00;69.20
10057;DHT22;5068;51.286;7.518;2022-08-05T08:12:39;19.00;69.30
10057;DHT22;5068;51.286;7.518;2022-08-05T08:14:20;19.00;69.40
10057;DHT22;5068;51.286;7.518;2022-08-05T08:15:55;18.90;69.30
10057;DHT22;5068;51.286;7.518;2022-08-05T08:17:48;18.90;69.20
10057;DHT22;5068;51.286;7.518;2022-08-05T08:19:24;19.00;69.40
10057;DHT22;5068;51.286;7.518;2022-08-05T08:21:17;18.90;69.50
10057;DHT22;5068;51.286;7.518;2022-08-05T08:22:51;18.90;69.50
10057;DHT22;5068;51.286;7.518;2022-08-05T08:24:26;18.90;69.50
10057;DHT22;5068;51.286;7.518;2022-08-05T08:26:20;18.90;69.70
10057;DHT22;5068;51.286;7.518;2022-08-05T08:28:00;18.90;69.80
10057;DHT22;5068;51.286;7.518;2022-08-05T08:29:34;18.90;69.70
10057;DHT22;5068;51.286;7.518;2022-08-05T08:31:29;18.80;69.60
10057;DHT22;5068;51.286;7.518;2022-08-05T08:33:07;18.80;69.40
10057;DHT22;5068;51.286;7.518;2022-08-05T08:34:44;18.80;70.20
10057;DHT22;5068;51.286;7.518;2022-08-05T08:36:18;18.80;69.10
10057;DHT22;5068;51.286;7.518;2022-08-05T08:38:12;18.80;69.10
10057;DHT22;5068;51.286;7.518;2022-08-05T08:40:03;18.80;69.10
10057;DHT22;5068;51.286;7.518;2022-08-05T08:41:40;18.80;69.00
10057;DHT22;5068;51.286;7.518;2022-08-05T08:43:30;18.80;69.10
10057;DHT22;5068;51.286;7.518;2022-08-05T08:45:26;18.80;68.90
10057;DHT22;5068;51.286;7.518;2022-08-05T08:47:04;18.80;68.60
10057;DHT22;5068;51.286;7.518;2022-08-05T08:49:01;18.70;68.40
10057;DHT22;5068;51.286;7.518;2022-08-05T08:50:56;18.70;68.40
10057;DHT22;5068;51.286;7.518;2022-08-05T08:52:52;18.70;68.40
10057;DHT22;5068;51.286;7.518;2022-08-05T08:54:29;18.70;68.60
10057;DHT22;5068;51.286;7.518;2022-08-05T08:56:04;18.60;68.50
10057;DHT22;5068;51.286;7.518;2022-08-05T08:57:37;18.60;68.70
10057;DHT22;5068;51.286;7.518;2022-08-05T08:59:29;18.60;68.50
10057;DHT22;5068;51.286;7.518;2022-08-05T09:01:05;18.60;68.30
10057;DHT22;5068;51.286;7.518;2022-08-05T09:02:48;18.60;68.80
10057;DHT22;5068;51.286;7.518;2022-08-05T09:04:23;18.60;67.80
10057;DHT22;5068;51.286;7.518;2022-08-05T09:06:01;18.60;67.90
10057;DHT22;5068;51.286;7.518;2022-08-05T09:07:41;18.50;68.00
10057;DHT22;5068;51.286;7.518;2022-08-05T09:09:29;18.50;67.80
10057;DHT22;5068;51.286;7.518;2022-08-05T09:11:07;18.50;67.90
10057;DHT22;5068;51.286;7.518;2022-08-05T09:12:44;18.50;67.90
10057;DHT22;5068;51.286;7.518;2022-08-05T09:14:24;18.40;67.60
10057;DHT22;5068;51.286;7.518;2022-08-05T09:16:19;18.50;67.70
10057;DHT22;5068;51.286;7.518;2022-08-05T09:17:59;18.50;67.80
10057;DHT22;5068;51.286;7.518;2022-08-05T09:19:34;18.40;67.80
10057;DHT22;5068;51.286;7.518;2022-08-05T09:21:28;18.40;67.80
10057;DHT22;5068;51.286;7.518;2022-08-05T09:23:21;18.40;67.70
10057;DHT22;5068;51.286;7.518;2022-08-05T09:25:08;18.40;67.60
10057;DHT22;5068;51.286;7.518;2022-08-05T09:26:57;18.40;67.60
10057;DHT22;5068;51.286;7.518;2022-08-05T09:28:31;18.30;67.50
10057;DHT22;5068;51.286;7.518;2022-08-05T09:30:06;18.30;67.50
10057;DHT22;5068;51.286;7.518;2022-08-05T09:32:00;18.30;67.20
10057;DHT22;5068;51.286;7.518;2022-08-05T09:33:58;18.30;67.50
10057;DHT22;5068;51.286;7.518;2022-08-05T09:35:33;18.30;67.00
10057;DHT22;5068;51.286;7.518;2022-08-05T09:37:16;18.20;67.00
10057;DHT22;5068;51.286;7.518;2022-08-05T09:39:12;18.20;67.30
10057;DHT22;5068;51.286;7.518;2022-08-05T09:40:49;18.10;67.10
10057;DHT22;5068;51.286;7.518;2022-08-05T09:42:25;18.10;67.20
10057;DHT22;5068;51.286;7.518;2022-08-05T09:44:02;18.10;67.10
10057;DHT22;5068;51.286;7.518;2022-08-05T09:45:38;18.10;66.90
10057;DHT22;5068;51.286;7.518;2022-08-05T09:47:33;18.00;66.70
10057;DHT22;5068;51.286;7.518;2022-08-05T09:49:29;18.00;66.70
10057;DHT22;5068;51.286;7.518;2022-08-05T09:51:32;18.00;67.00
10057;DHT22;5068;51.286;7.518;2022-08-05T09:53:10;17.90;66.70
10057;DHT22;5068;51.286;7.518;2022-08-05T09:54:59;17.90;66.50
10057;DHT22;5068;51.286;7.518;2022-08-05T09:56:53;17.90;66.90
10057;DHT22;5068;51.286;7.518;2022-08-05T09:58:32;17.80;67.70
10057;DHT22;5068;51.286;7.518;2022-08-05T10:00:08;17.80;67.00
10057;DHT22;5068;51.286;7.518;2022-08-05T10:01:44;17.80;66.90
10057;DHT22;5068;51.286;7.518;2022-08-05T10:03:29;17.80;66.90
10057;DHT22;5068;51.286;7.518;2022-08-05T10:05:28;17.70;66.80
10057;DHT22;5068;51.286;7.518;2022-08-05T10:07:04;17.70;66.20
10057;DHT22;5068;51.286;7.518;2022-08-05T10:09:10;17.70;65.80
10057;DHT22;5068;51.286;7.518;2022-08-05T10:10:59;17.60;66.00
10057;DHT22;5068;51.286;7.518;2022-08-05T10:12:39;17.60;66.00
10057;DHT22;5068;51.286;7.518;2022-08-05T10:14:22;17.50;65.90
10057;DHT22;5068;51.286;7.518;2022-08-05T10:15:57;17.50;65.90
10057;DHT22;5068;51.286;7.518;2022-08-05T10:17:33;17.40;66.00
10057;DHT22;5068;51.286;7.518;2022-08-05T10:19:12;17.40;66.10
10057;DHT22;5068;51.286;7.518;2022-08-05T10:20:48;17.40;66.10
10057;DHT22;5068;51.286;7.518;2022-08-05T10:22:24;17.40;66.20
10057;DHT22;5068;51.286;7.518;2022-08-05T10:24:01;17.40;66.40
10057;DHT22;5068;51.286;7.518;2022-08-05T10:25:41;17.30;66.60
10057;DHT22;5068;51.286;7.518;2022-08-05T10:27:17;17.30;66.70
10057;DHT22;5068;51.286;7.518;2022-08-05T10:28:57;17.30;66.90
10057;DHT22;5068;51.286;7.518;2022-08-05T10:30:31;17.30;67.20
10057;DHT22;5068;51.286;7.518;2022-08-05T10:32:25;17.20;67.30
10057;DHT22;5068;51.286;7.518;2022-08-05T10:34:19;17.20;67.30
10057;DHT22;5068;51.286;7.518;2022-08-05T10:36:03;17.20;67.30
10057;DHT22;5068;51.286;7.518;2022-08-05T10:37:40;17.20;67.30
10057;DHT22;5068;51.286;7.518;2022-08-05T10:39:18;17.20;67.50
10057;DHT22;5068;51.286;7.518;2022-08-05T10:41:22;17.10;67.40
10057;DHT22;5068;51.286;7.518;2022-08-05T10:43:28;17.10;67.70
10057;DHT22;5068;51.286;7.518;2022-08-05T10:45:08;17.10;67.90
10057;DHT22;5068;51.286;7.518;2022-08-05T10:47:10;17.10;67.90
10057;DHT22;5068;51.286;7.518;2022-08-05T10:49:06;17.10;68.50
10057;DHT22;5068;51.286;7.518;2022-08-05T10:51:07;17.10;68.70
10057;DHT22;5068;51.286;7.518;2022-08-05T10:52:53;17.10;68.90
10057;DHT22;5068;51.286;7.518;2022-08-05T10:55:01;17.00;68.40
10057;DHT22;5068;51.286;7.518;2022-08-05T10:56:44;17.10;69.00
10057;DHT22;5068;51.286;7.518;2022-08-05T10:58:23;17.10;68.50
10057;DHT22;5068;51.286;7.518;2022-08-05T11:00:19;17.10;68.20
10057;DHT22;5068;51.286;7.518;2022-08-05T11:02:06;17.10;68.20
10057;DHT22;5068;51.286;7.518;2022-08-05T11:04:03;17.10;68.50